Terminal Aerodrome Forecast
Issued by NWS Miami, FL

Home | Current Version | Previous Version | Text Only | Print | Product List | Glossary On
Versions: 1 2 3 4 5 6 7 8 9 10 11 12 13 14 15 16 17 18 19 20 21 22 23 24 25
000
FTUS42 KMFL 181313 AAA
TAFAPF
TAF AMD
KAPF 181313Z 1813/1912 09004KT 4SM BR FU SCT250
     FM181500 16005KT P6SM SCT250
     FM181600 21006KT P6SM SCT035 BKN250
     FM190000 00000KT P6SM SKC=

USA.gov is the U.S. government's official web portal to all federal, state and local government web resources and services.